sensor_id;sensor_type;location;lat;lon;timestamp;pressure;altitude;pressure_sealevel;temperature
17716;BMP280;50159;49.426;11.182;2022-07-05T00:00:16;97822.66;;;18.14
17716;BMP280;50159;49.426;11.182;2022-07-05T00:02:44;97821.84;;;18.05
17716;BMP280;50159;49.426;11.182;2022-07-05T00:05:11;97827.75;;;17.99
17716;BMP280;50159;49.426;11.182;2022-07-05T00:07:38;97825.09;;;17.92
17716;BMP280;50159;49.426;11.182;2022-07-05T00:10:06;97817.31;;;17.90
17716;BMP280;50159;49.426;11.182;2022-07-05T00:12:34;97824.56;;;17.88
17716;BMP280;50159;49.426;11.182;2022-07-05T00:15:01;97819.94;;;17.82
17716;BMP280;50159;49.426;11.182;2022-07-05T00:17:28;97825.53;;;17.79
17716;BMP280;50159;49.426;11.182;2022-07-05T00:19:55;97829.44;;;17.75
17716;BMP280;50159;49.426;11.182;2022-07-05T00:22:22;97826.47;;;17.71
17716;BMP280;50159;49.426;11.182;2022-07-05T00:24:55;97830.41;;;17.67
17716;BMP280;50159;49.426;11.182;2022-07-05T00:27:22;97834.16;;;17.64
17716;BMP280;50159;49.426;11.182;2022-07-05T00:29:49;97844.34;;;17.59
17716;BMP280;50159;49.426;11.182;2022-07-05T00:32:16;97839.88;;;17.52
17716;BMP280;50159;49.426;11.182;2022-07-05T00:34:42;97834.59;;;17.44
17716;BMP280;50159;49.426;11.182;2022-07-05T00:37:10;97836.84;;;17.39
17716;BMP280;50159;49.426;11.182;2022-07-05T00:39:37;97835.69;;;17.34
17716;BMP280;50159;49.426;11.182;2022-07-05T00:42:04;97835.47;;;17.27
17716;BMP280;50159;49.426;11.182;2022-07-05T00:44:37;97829.03;;;17.22
17716;BMP280;50159;49.426;11.182;2022-07-05T00:47:07;97836.44;;;17.19
17716;BMP280;50159;49.426;11.182;2022-07-05T00:49:35;97835.38;;;17.12
17716;BMP280;50159;49.426;11.182;2022-07-05T00:52:04;97832.56;;;17.05
17716;BMP280;50159;49.426;11.182;2022-07-05T00:54:48;97833.31;;;16.98
17716;BMP280;50159;49.426;11.182;2022-07-05T00:57:16;97835.72;;;16.92
17716;BMP280;50159;49.426;11.182;2022-07-05T00:59:43;97838.44;;;16.82
17716;BMP280;50159;49.426;11.182;2022-07-05T01:02:09;97835.91;;;16.73
17716;BMP280;50159;49.426;11.182;2022-07-05T01:04:44;97831.56;;;16.64
17716;BMP280;50159;49.426;11.182;2022-07-05T01:07:12;97833.00;;;16.59
17716;BMP280;50159;49.426;11.182;2022-07-05T01:09:39;97845.78;;;16.54
17716;BMP280;50159;49.426;11.182;2022-07-05T01:12:08;97837.22;;;16.52
17716;BMP280;50159;49.426;11.182;2022-07-05T01:14:35;97835.88;;;16.48
17716;BMP280;50159;49.426;11.182;2022-07-05T01:17:02;97838.81;;;16.45
17716;BMP280;50159;49.426;11.182;2022-07-05T01:19:30;97841.28;;;16.47
17716;BMP280;50159;49.426;11.182;2022-07-05T01:22:01;97837.97;;;16.45
17716;BMP280;50159;49.426;11.182;2022-07-05T01:24:30;97831.25;;;16.42
17716;BMP280;50159;49.426;11.182;2022-07-05T01:26:57;97833.19;;;16.40
17716;BMP280;50159;49.426;11.182;2022-07-05T01:29:24;97836.75;;;16.39
17716;BMP280;50159;49.426;11.182;2022-07-05T01:31:52;97835.44;;;16.36
17716;BMP280;50159;49.426;11.182;2022-07-05T01:34:19;97839.66;;;16.29
17716;BMP280;50159;49.426;11.182;2022-07-05T01:36:46;97848.09;;;16.23
17716;BMP280;50159;49.426;11.182;2022-07-05T01:39:14;97846.75;;;16.19
17716;BMP280;50159;49.426;11.182;2022-07-05T01:41:41;97847.06;;;16.16
17716;BMP280;50159;49.426;11.182;2022-07-05T01:44:08;97845.53;;;16.13
17716;BMP280;50159;49.426;11.182;2022-07-05T01:46:38;97851.84;;;16.03
17716;BMP280;50159;49.426;11.182;2022-07-05T01:49:10;97841.91;;;15.97
17716;BMP280;50159;49.426;11.182;2022-07-05T01:52:02;97838.25;;;15.91
17716;BMP280;50159;49.426;11.182;2022-07-05T01:54:29;97845.13;;;15.91
17716;BMP280;50159;49.426;11.182;2022-07-05T01:56:57;97841.53;;;15.92
17716;BMP280;50159;49.426;11.182;2022-07-05T01:59:26;97844.59;;;15.88
17716;BMP280;50159;49.426;11.182;2022-07-05T02:01:54;97851.47;;;15.89
17716;BMP280;50159;49.426;11.182;2022-07-05T02:04:20;97845.72;;;15.86
17716;BMP280;50159;49.426;11.182;2022-07-05T02:06:47;97853.22;;;15.81
17716;BMP280;50159;49.426;11.182;2022-07-05T02:09:14;97855.44;;;15.76
17716;BMP280;50159;49.426;11.182;2022-07-05T02:11:41;97847.19;;;15.71
17716;BMP280;50159;49.426;11.182;2022-07-05T02:14:08;97849.56;;;15.65
17716;BMP280;50159;49.426;11.182;2022-07-05T02:16:35;97847.53;;;15.59
17716;BMP280;50159;49.426;11.182;2022-07-05T02:19:02;97848.94;;;15.53
17716;BMP280;50159;49.426;11.182;2022-07-05T02:21:29;97852.66;;;15.51
17716;BMP280;50159;49.426;11.182;2022-07-05T02:23:56;97856.41;;;15.48
17716;BMP280;50159;49.426;11.182;2022-07-05T02:26:22;97856.84;;;15.44
17716;BMP280;50159;49.426;11.182;2022-07-05T02:28:49;97857.25;;;15.40
17716;BMP280;50159;49.426;11.182;2022-07-05T02:31:16;97856.06;;;15.34
17716;BMP280;50159;49.426;11.182;2022-07-05T02:33:43;97861.75;;;15.30
17716;BMP280;50159;49.426;11.182;2022-07-05T02:36:12;97860.50;;;15.24
17716;BMP280;50159;49.426;11.182;2022-07-05T02:38:40;97862.59;;;15.21
17716;BMP280;50159;49.426;11.182;2022-07-05T02:41:09;97864.81;;;15.16
17716;BMP280;50159;49.426;11.182;2022-07-05T02:43:36;97875.56;;;15.13
17716;BMP280;50159;49.426;11.182;2022-07-05T02:46:06;97865.66;;;15.07
17716;BMP280;50159;49.426;11.182;2022-07-05T02:48:35;97867.91;;;15.02
17716;BMP280;50159;49.426;11.182;2022-07-05T02:51:04;97866.22;;;15.01
17716;BMP280;50159;49.426;11.182;2022-07-05T02:53:31;97870.91;;;14.98
17716;BMP280;50159;49.426;11.182;2022-07-05T02:55:58;97867.88;;;14.93
17716;BMP280;50159;49.426;11.182;2022-07-05T02:58:24;97867.47;;;14.88
17716;BMP280;50159;49.426;11.182;2022-07-05T03:00:52;97872.16;;;14.85
17716;BMP280;50159;49.426;11.182;2022-07-05T03:03:18;97874.09;;;14.83
17716;BMP280;50159;49.426;11.182;2022-07-05T03:05:45;97872.03;;;14.77
17716;BMP280;50159;49.426;11.182;2022-07-05T03:08:12;97865.19;;;14.67
17716;BMP280;50159;49.426;11.182;2022-07-05T03:10:39;97870.41;;;14.57
17716;BMP280;50159;49.426;11.182;2022-07-05T03:13:06;97874.28;;;14.54
17716;BMP280;50159;49.426;11.182;2022-07-05T03:15:33;97883.09;;;14.53
17716;BMP280;50159;49.426;11.182;2022-07-05T03:18:00;97882.25;;;14.52
17716;BMP280;50159;49.426;11.182;2022-07-05T03:20:27;97883.34;;;14.50
17716;BMP280;50159;49.426;11.182;2022-07-05T03:22:54;97882.66;;;14.48
17716;BMP280;50159;49.426;11.182;2022-07-05T03:25:21;97881.31;;;14.44
17716;BMP280;50159;49.426;11.182;2022-07-05T03:27:48;97895.06;;;14.46
17716;BMP280;50159;49.426;11.182;2022-07-05T03:30:14;97896.72;;;14.47
17716;BMP280;50159;49.426;11.182;2022-07-05T03:32:41;97899.75;;;14.42
17716;BMP280;50159;49.426;11.182;2022-07-05T03:35:08;97899.47;;;14.36
17716;BMP280;50159;49.426;11.182;2022-07-05T03:37:35;97901.53;;;14.33
17716;BMP280;50159;49.426;11.182;2022-07-05T03:40:03;97909.53;;;14.31
17716;BMP280;50159;49.426;11.182;2022-07-05T03:42:30;97917.66;;;14.28
17716;BMP280;50159;49.426;11.182;2022-07-05T03:44:57;97912.53;;;14.27
17716;BMP280;50159;49.426;11.182;2022-07-05T03:47:24;97916.13;;;14.26
17716;BMP280;50159;49.426;11.182;2022-07-05T03:49:50;97926.88;;;14.23
17716;BMP280;50159;49.426;11.182;2022-07-05T03:52:17;97931.28;;;14.22
17716;BMP280;50159;49.426;11.182;2022-07-05T03:54:51;97936.22;;;14.25
17716;BMP280;50159;49.426;11.182;2022-07-05T03:57:18;97938.16;;;14.23
17716;BMP280;50159;49.426;11.182;2022-07-05T03:59:45;97931.56;;;14.19
17716;BMP280;50159;49.426;11.182;2022-07-05T04:02:12;97936.22;;;14.16
17716;BMP280;50159;49.426;11.182;2022-07-05T04:04:39;97937.75;;;14.18
17716;BMP280;50159;49.426;11.182;2022-07-05T04:07:06;97944.34;;;14.22
17716;BMP280;50159;49.426;11.182;2022-07-05T04:09:33;97950.97;;;14.26
17716;BMP280;50159;49.426;11.182;2022-07-05T04:12:00;97946.69;;;14.25
17716;BMP280;50159;49.426;11.182;2022-07-05T04:14:27;97948.63;;;14.23
17716;BMP280;50159;49.426;11.182;2022-07-05T04:16:54;97955.78;;;14.21
17716;BMP280;50159;49.426;11.182;2022-07-05T04:19:21;97943.38;;;14.23
17716;BMP280;50159;49.426;11.182;2022-07-05T04:21:48;97954.53;;;14.25
17716;BMP280;50159;49.426;11.182;2022-07-05T04:24:15;97953.72;;;14.25
17716;BMP280;50159;49.426;11.182;2022-07-05T04:26:42;97958.13;;;14.24
17716;BMP280;50159;49.426;11.182;2022-07-05T04:29:09;97959.78;;;14.25
17716;BMP280;50159;49.426;11.182;2022-07-05T04:31:36;97951.69;;;14.28
17716;BMP280;50159;49.426;11.182;2022-07-05T04:34:03;97953.06;;;14.32
17716;BMP280;50159;49.426;11.182;2022-07-05T04:36:29;97951.69;;;14.28
17716;BMP280;50159;49.426;11.182;2022-07-05T04:38:56;97946.44;;;14.28
17716;BMP280;50159;49.426;11.182;2022-07-05T04:41:24;97950.84;;;14.28
17716;BMP280;50159;49.426;11.182;2022-07-05T04:43:51;97961.88;;;14.31
17716;BMP280;50159;49.426;11.182;2022-07-05T04:46:18;97956.91;;;14.37
17716;BMP280;50159;49.426;11.182;2022-07-05T04:48:45;97955.81;;;14.40
17716;BMP280;50159;49.426;11.182;2022-07-05T04:51:12;97965.75;;;14.46
17716;BMP280;50159;49.426;11.182;2022-07-05T04:53:39;97966.59;;;14.56
17716;BMP280;50159;49.426;11.182;2022-07-05T04:56:06;97960.38;;;14.66
17716;BMP280;50159;49.426;11.182;2022-07-05T04:58:33;97964.78;;;14.75
17716;BMP280;50159;49.426;11.182;2022-07-05T05:01:00;97958.59;;;14.85
17716;BMP280;50159;49.426;11.182;2022-07-05T05:03:27;97965.31;;;14.97
17716;BMP280;50159;49.426;11.182;2022-07-05T05:05:54;97967.69;;;15.09
17716;BMP280;50159;49.426;11.182;2022-07-05T05:08:21;97960.38;;;15.22
17716;BMP280;50159;49.426;11.182;2022-07-05T05:10:48;97963.22;;;15.37
17716;BMP280;50159;49.426;11.182;2022-07-05T05:13:14;97964.41;;;15.52
17716;BMP280;50159;49.426;11.182;2022-07-05T05:15:41;97963.28;;;15.64
17716;BMP280;50159;49.426;11.182;2022-07-05T05:18:08;97963.78;;;15.76
17716;BMP280;50159;49.426;11.182;2022-07-05T05:20:35;97963.59;;;15.87
17716;BMP280;50159;49.426;11.182;2022-07-05T05:23:06;97971.13;;;15.99
17716;BMP280;50159;49.426;11.182;2022-07-05T05:25:33;97972.63;;;16.11
17716;BMP280;50159;49.426;11.182;2022-07-05T05:28:02;97975.75;;;16.24
17716;BMP280;50159;49.426;11.182;2022-07-05T05:30:29;97973.59;;;16.36
17716;BMP280;50159;49.426;11.182;2022-07-05T05:32:56;97968.28;;;16.46
17716;BMP280;50159;49.426;11.182;2022-07-05T05:35:22;97963.50;;;16.58
17716;BMP280;50159;49.426;11.182;2022-07-05T05:37:55;97969.19;;;16.71
17716;BMP280;50159;49.426;11.182;2022-07-05T05:40:24;97966.03;;;16.85
17716;BMP280;50159;49.426;11.182;2022-07-05T05:42:53;97964.03;;;16.96
17716;BMP280;50159;49.426;11.182;2022-07-05T05:45:20;97981.09;;;17.09
17716;BMP280;50159;49.426;11.182;2022-07-05T05:47:51;97978.38;;;17.19
17716;BMP280;50159;49.426;11.182;2022-07-05T05:50:30;97978.66;;;17.33
17716;BMP280;50159;49.426;11.182;2022-07-05T05:52:57;97975.47;;;17.47
17716;BMP280;50159;49.426;11.182;2022-07-05T05:55:27;97969.47;;;17.62
17716;BMP280;50159;49.426;11.182;2022-07-05T05:57:55;97976.50;;;17.78
17716;BMP280;50159;49.426;11.182;2022-07-05T06:00:24;97969.38;;;17.96
17716;BMP280;50159;49.426;11.182;2022-07-05T06:02:51;97975.38;;;18.14
17716;BMP280;50159;49.426;11.182;2022-07-05T06:05:18;97977.09;;;18.30
17716;BMP280;50159;49.426;11.182;2022-07-05T06:07:53;97976.47;;;18.44
17716;BMP280;50159;49.426;11.182;2022-07-05T06:10:32;97977.34;;;18.60
17716;BMP280;50159;49.426;11.182;2022-07-05T06:13:02;97980.16;;;18.74
17716;BMP280;50159;49.426;11.182;2022-07-05T06:15:29;97968.84;;;18.89
17716;BMP280;50159;49.426;11.182;2022-07-05T06:17:56;97975.28;;;19.03
17716;BMP280;50159;49.426;11.182;2022-07-05T06:20:29;97976.31;;;19.17
17716;BMP280;50159;49.426;11.182;2022-07-05T06:22:58;97968.38;;;19.33
17716;BMP280;50159;49.426;11.182;2022-07-05T06:25:26;97969.69;;;19.45
17716;BMP280;50159;49.426;11.182;2022-07-05T06:28:02;97962.91;;;19.58
17716;BMP280;50159;49.426;11.182;2022-07-05T06:30:32;97971.66;;;19.74
17716;BMP280;50159;49.426;11.182;2022-07-05T06:32:59;97974.59;;;19.87
17716;BMP280;50159;49.426;11.182;2022-07-05T06:35:27;97974.22;;;19.97
17716;BMP280;50159;49.426;11.182;2022-07-05T06:38:02;97975.34;;;20.11
17716;BMP280;50159;49.426;11.182;2022-07-05T06:40:34;97974.63;;;20.24
17716;BMP280;50159;49.426;11.182;2022-07-05T06:43:05;97974.72;;;20.39
17716;BMP280;50159;49.426;11.182;2022-07-05T06:45:33;97980.31;;;20.51
17716;BMP280;50159;49.426;11.182;2022-07-05T06:48:03;97979.75;;;20.64
17716;BMP280;50159;49.426;11.182;2022-07-05T06:50:33;97986.78;;;20.79
17716;BMP280;50159;49.426;11.182;2022-07-05T06:53:00;97975.78;;;20.89
17716;BMP280;50159;49.426;11.182;2022-07-05T06:55:27;97975.38;;;21.00
17716;BMP280;50159;49.426;11.182;2022-07-05T06:58:06;97977.63;;;21.11
17716;BMP280;50159;49.426;11.182;2022-07-05T07:00:41;97981.53;;;21.23
17716;BMP280;50159;49.426;11.182;2022-07-05T07:03:28;97976.09;;;21.38
17716;BMP280;50159;49.426;11.182;2022-07-05T07:06:15;97974.66;;;21.50
17716;BMP280;50159;49.426;11.182;2022-07-05T07:08:43;97972.41;;;21.61
17716;BMP280;50159;49.426;11.182;2022-07-05T07:11:29;97972.16;;;21.71
17716;BMP280;50159;49.426;11.182;2022-07-05T07:13:57;97986.97;;;21.79
17716;BMP280;50159;49.426;11.182;2022-07-05T07:16:24;97985.06;;;21.88
17716;BMP280;50159;49.426;11.182;2022-07-05T07:18:51;97975.69;;;22.00
17716;BMP280;50159;49.426;11.182;2022-07-05T07:21:38;97985.09;;;22.16
17716;BMP280;50159;49.426;11.182;2022-07-05T07:24:07;97993.69;;;22.32
17716;BMP280;50159;49.426;11.182;2022-07-05T07:26:34;97989.56;;;22.44
17716;BMP280;50159;49.426;11.182;2022-07-05T07:29:22;97987.34;;;22.62
17716;BMP280;50159;49.426;11.182;2022-07-05T07:31:48;97987.16;;;22.77
17716;BMP280;50159;49.426;11.182;2022-07-05T07:34:15;97986.56;;;22.96
17716;BMP280;50159;49.426;11.182;2022-07-05T07:36:42;97986.25;;;23.05
17716;BMP280;50159;49.426;11.182;2022-07-05T07:39:09;97983.56;;;23.19
17716;BMP280;50159;49.426;11.182;2022-07-05T07:41:36;97978.75;;;23.29
17716;BMP280;50159;49.426;11.182;2022-07-05T07:44:03;97977.22;;;23.41
17716;BMP280;50159;49.426;11.182;2022-07-05T07:46:30;97973.72;;;23.55
17716;BMP280;50159;49.426;11.182;2022-07-05T07:48:58;97980.38;;;23.71
17716;BMP280;50159;49.426;11.182;2022-07-05T07:51:25;97980.28;;;23.85
17716;BMP280;50159;49.426;11.182;2022-07-05T07:53:52;97974.81;;;23.93
17716;BMP280;50159;49.426;11.182;2022-07-05T07:56:28;97978.75;;;24.03
17716;BMP280;50159;49.426;11.182;2022-07-05T07:58:56;97976.59;;;24.13
17716;BMP280;50159;49.426;11.182;2022-07-05T08:01:23;97978.94;;;24.29
17716;BMP280;50159;49.426;11.182;2022-07-05T08:03:50;97977.56;;;24.39
17716;BMP280;50159;49.426;11.182;2022-07-05T08:06:18;97981.91;;;24.53
17716;BMP280;50159;49.426;11.182;2022-07-05T08:08:45;97985.91;;;24.70
17716;BMP280;50159;49.426;11.182;2022-07-05T08:11:13;97986.81;;;24.83
17716;BMP280;50159;49.426;11.182;2022-07-05T08:13:41;97984.16;;;24.89
17716;BMP280;50159;49.426;11.182;2022-07-05T08:16:10;97975.19;;;24.96
17716;BMP280;50159;49.426;11.182;2022-07-05T08:18:37;97978.06;;;25.08
17716;BMP280;50159;49.426;11.182;2022-07-05T08:21:23;97982.59;;;25.20
17716;BMP280;50159;49.426;11.182;2022-07-05T08:24:04;97977.28;;;25.26
17716;BMP280;50159;49.426;11.182;2022-07-05T08:26:32;97973.81;;;25.32
17716;BMP280;50159;49.426;11.182;2022-07-05T08:29:02;97966.09;;;25.43
17716;BMP280;50159;49.426;11.182;2022-07-05T08:31:43;97972.63;;;25.54
17716;BMP280;50159;49.426;11.182;2022-07-05T08:34:10;97966.28;;;25.61
17716;BMP280;50159;49.426;11.182;2022-07-05T08:36:38;97966.91;;;25.63
17716;BMP280;50159;49.426;11.182;2022-07-05T08:39:08;97965.66;;;25.78
17716;BMP280;50159;49.426;11.182;2022-07-05T08:41:38;97950.47;;;25.91
17716;BMP280;50159;49.426;11.182;2022-07-05T08:44:06;97958.06;;;25.94
17716;BMP280;50159;49.426;11.182;2022-07-05T08:46:39;97963.63;;;25.61
17716;BMP280;50159;49.426;11.182;2022-07-05T08:49:08;97974.63;;;25.20
17716;BMP280;50159;49.426;11.182;2022-07-05T08:51:40;97974.94;;;24.85
17716;BMP280;50159;49.426;11.182;2022-07-05T08:54:12;97971.13;;;24.54
17716;BMP280;50159;49.426;11.182;2022-07-05T08:56:45;97971.81;;;24.36
17716;BMP280;50159;49.426;11.182;2022-07-05T08:59:32;97963.16;;;24.61
17716;BMP280;50159;49.426;11.182;2022-07-05T09:02:00;97968.25;;;25.08
17716;BMP280;50159;49.426;11.182;2022-07-05T09:04:35;97961.56;;;25.63
17716;BMP280;50159;49.426;11.182;2022-07-05T09:07:05;97968.31;;;25.84
17716;BMP280;50159;49.426;11.182;2022-07-05T09:09:38;97960.53;;;26.02
17716;BMP280;50159;49.426;11.182;2022-07-05T09:12:12;97961.50;;;26.33
17716;BMP280;50159;49.426;11.182;2022-07-05T09:14:55;97953.19;;;26.66
17716;BMP280;50159;49.426;11.182;2022-07-05T09:17:23;97969.72;;;26.94
17716;BMP280;50159;49.426;11.182;2022-07-05T09:20:14;97960.75;;;27.12
17716;BMP280;50159;49.426;11.182;2022-07-05T09:22:55;97960.66;;;27.31
17716;BMP280;50159;49.426;11.182;2022-07-05T09:25:28;97954.09;;;27.27
17716;BMP280;50159;49.426;11.182;2022-07-05T09:28:05;97964.75;;;27.34
17716;BMP280;50159;49.426;11.182;2022-07-05T09:30:42;97967.56;;;27.45
17716;BMP280;50159;49.426;11.182;2022-07-05T09:33:12;97965.75;;;27.63
17716;BMP280;50159;49.426;11.182;2022-07-05T09:35:42;97968.91;;;27.84
17716;BMP280;50159;49.426;11.182;2022-07-05T09:38:20;97967.28;;;27.83
17716;BMP280;50159;49.426;11.182;2022-07-05T09:40:53;97968.44;;;27.93
17716;BMP280;50159;49.426;11.182;2022-07-05T09:43:26;97975.28;;;28.07
17716;BMP280;50159;49.426;11.182;2022-07-05T09:46:04;97977.91;;;27.89
17716;BMP280;50159;49.426;11.182;2022-07-05T09:48:34;97974.31;;;27.47
17716;BMP280;50159;49.426;11.182;2022-07-05T09:51:11;97971.53;;;27.36
17716;BMP280;50159;49.426;11.182;2022-07-05T09:54:00;97969.69;;;27.61
17716;BMP280;50159;49.426;11.182;2022-07-05T09:56:48;97977.03;;;27.95
17716;BMP280;50159;49.426;11.182;2022-07-05T09:59:19;97975.56;;;28.17
17716;BMP280;50159;49.426;11.182;2022-07-05T10:01:50;97981.16;;;27.91
17716;BMP280;50159;49.426;11.182;2022-07-05T10:04:17;97973.50;;;27.47
17716;BMP280;50159;49.426;11.182;2022-07-05T10:06:45;97965.03;;;27.50
17716;BMP280;50159;49.426;11.182;2022-07-05T10:09:12;97970.63;;;27.72
17716;BMP280;50159;49.426;11.182;2022-07-05T10:11:44;97966.25;;;28.02
17716;BMP280;50159;49.426;11.182;2022-07-05T10:14:17;97963.59;;;28.02
17716;BMP280;50159;49.426;11.182;2022-07-05T10:16:52;97964.28;;;28.15
17716;BMP280;50159;49.426;11.182;2022-07-05T10:19:22;97970.16;;;28.23
17716;BMP280;50159;49.426;11.182;2022-07-05T10:21:52;97964.44;;;28.44
17716;BMP280;50159;49.426;11.182;2022-07-05T10:24:40;97977.66;;;28.57
17716;BMP280;50159;49.426;11.182;2022-07-05T10:27:08;97965.91;;;28.40
17716;BMP280;50159;49.426;11.182;2022-07-05T10:29:38;97973.53;;;28.19
17716;BMP280;50159;49.426;11.182;2022-07-05T10:32:08;97960.31;;;28.00
17716;BMP280;50159;49.426;11.182;2022-07-05T10:34:38;97969.00;;;28.19
17716;BMP280;50159;49.426;11.182;2022-07-05T10:37:30;97967.25;;;28.49
17716;BMP280;50159;49.426;11.182;2022-07-05T10:39:59;97963.25;;;28.57
17716;BMP280;50159;49.426;11.182;2022-07-05T10:42:43;97955.47;;;28.67
17716;BMP280;50159;49.426;11.182;2022-07-05T10:45:29;97964.72;;;28.71
17716;BMP280;50159;49.426;11.182;2022-07-05T10:48:16;97964.09;;;28.87
17716;BMP280;50159;49.426;11.182;2022-07-05T10:50:59;97955.59;;;29.07
17716;BMP280;50159;49.426;11.182;2022-07-05T10:56:22;97960.53;;;29.50
17716;BMP280;50159;49.426;11.182;2022-07-05T10:59:05;97962.34;;;29.79
17716;BMP280;50159;49.426;11.182;2022-07-05T11:01:36;97960.63;;;29.95
17716;BMP280;50159;49.426;11.182;2022-07-05T11:14:45;97957.00;;;30.46
17716;BMP280;50159;49.426;11.182;2022-07-05T11:17:17;97968.44;;;30.42
17716;BMP280;50159;49.426;11.182;2022-07-05T11:20:15;97961.81;;;30.56
17716;BMP280;50159;49.426;11.182;2022-07-05T11:23:08;97946.91;;;30.76
17716;BMP280;50159;49.426;11.182;2022-07-05T11:25:39;97950.84;;;30.57
17716;BMP280;50159;49.426;11.182;2022-07-05T11:28:19;97956.31;;;30.17
17716;BMP280;50159;49.426;11.182;2022-07-05T11:30:58;97950.28;;;30.10
17716;BMP280;50159;49.426;11.182;2022-07-05T11:33:42;97954.00;;;30.09
17716;BMP280;50159;49.426;11.182;2022-07-05T11:36:24;97942.91;;;30.17
17716;BMP280;50159;49.426;11.182;2022-07-05T11:39:20;97948.97;;;30.35
17716;BMP280;50159;49.426;11.182;2022-07-05T11:41:48;97952.94;;;30.44
17716;BMP280;50159;49.426;11.182;2022-07-05T11:44:16;97937.63;;;30.44
17716;BMP280;50159;49.426;11.182;2022-07-05T11:46:44;97936.44;;;30.40
17716;BMP280;50159;49.426;11.182;2022-07-05T11:49:24;97935.31;;;30.37
17716;BMP280;50159;49.426;11.182;2022-07-05T11:52:00;97933.66;;;30.36
17716;BMP280;50159;49.426;11.182;2022-07-05T11:54:30;97923.75;;;30.36
17716;BMP280;50159;49.426;11.182;2022-07-05T11:56:59;97919.53;;;30.40
17716;BMP280;50159;49.426;11.182;2022-07-05T11:59:26;97936.34;;;30.47
17716;BMP280;50159;49.426;11.182;2022-07-05T12:01:54;97921.06;;;30.36
17716;BMP280;50159;49.426;11.182;2022-07-05T12:06:50;97920.91;;;30.65
17716;BMP280;50159;49.426;11.182;2022-07-05T12:09:26;97924.81;;;30.85
17716;BMP280;50159;49.426;11.182;2022-07-05T12:11:55;97917.38;;;31.03
17716;BMP280;50159;49.426;11.182;2022-07-05T12:14:51;97919.03;;;30.93
17716;BMP280;50159;49.426;11.182;2022-07-05T12:17:20;97909.50;;;30.85
17716;BMP280;50159;49.426;11.182;2022-07-05T12:19:53;97908.13;;;30.33
17716;BMP280;50159;49.426;11.182;2022-07-05T12:22:42;97908.81;;;29.84
17716;BMP280;50159;49.426;11.182;2022-07-05T12:25:16;97908.97;;;30.00
17716;BMP280;50159;49.426;11.182;2022-07-05T12:27:45;97908.56;;;30.41
17716;BMP280;50159;49.426;11.182;2022-07-05T12:30:15;97909.34;;;30.92
17716;BMP280;50159;49.426;11.182;2022-07-05T12:33:06;97900.66;;;31.28
17716;BMP280;50159;49.426;11.182;2022-07-05T12:35:34;97918.31;;;31.52
17716;BMP280;50159;49.426;11.182;2022-07-05T12:40:37;97903.28;;;31.83
17716;BMP280;50159;49.426;11.182;2022-07-05T12:43:11;97909.84;;;31.44
17716;BMP280;50159;49.426;11.182;2022-07-05T12:45:40;97911.44;;;30.74
17716;BMP280;50159;49.426;11.182;2022-07-05T12:48:10;97913.38;;;30.17
17716;BMP280;50159;49.426;11.182;2022-07-05T12:50:50;97912.22;;;30.13
17716;BMP280;50159;49.426;11.182;2022-07-05T12:53:48;97902.50;;;30.57
17716;BMP280;50159;49.426;11.182;2022-07-05T12:56:34;97901.56;;;30.40
17716;BMP280;50159;49.426;11.182;2022-07-05T12:59:56;97890.63;;;29.86
17716;BMP280;50159;49.426;11.182;2022-07-05T13:05:02;97889.69;;;30.14
17716;BMP280;50159;49.426;11.182;2022-07-05T13:07:28;97879.97;;;30.58
17716;BMP280;50159;49.426;11.182;2022-07-05T13:10:24;97894.25;;;31.02
17716;BMP280;50159;49.426;11.182;2022-07-05T13:12:51;97888.97;;;31.34
17716;BMP280;50159;49.426;11.182;2022-07-05T13:15:18;97893.91;;;31.70
17716;BMP280;50159;49.426;11.182;2022-07-05T13:17:46;97897.56;;;31.96
17716;BMP280;50159;49.426;11.182;2022-07-05T13:20:16;97890.47;;;32.06
17716;BMP280;50159;49.426;11.182;2022-07-05T13:22:44;97880.38;;;31.81
17716;BMP280;50159;49.426;11.182;2022-07-05T13:25:12;97891.97;;;31.38
17716;BMP280;50159;49.426;11.182;2022-07-05T13:27:40;97885.91;;;30.87
17716;BMP280;50159;49.426;11.182;2022-07-05T13:30:08;97892.94;;;30.27
17716;BMP280;50159;49.426;11.182;2022-07-05T13:32:35;97888.88;;;30.14
17716;BMP280;50159;49.426;11.182;2022-07-05T13:35:03;97893.56;;;30.18
17716;BMP280;50159;49.426;11.182;2022-07-05T13:37:30;97900.66;;;30.13
17716;BMP280;50159;49.426;11.182;2022-07-05T13:39:57;97894.13;;;29.86
17716;BMP280;50159;49.426;11.182;2022-07-05T13:42:24;97886.44;;;29.56
17716;BMP280;50159;49.426;11.182;2022-07-05T13:44:50;97881.88;;;29.79
17716;BMP280;50159;49.426;11.182;2022-07-05T13:47:18;97884.34;;;30.14
17716;BMP280;50159;49.426;11.182;2022-07-05T13:49:45;97875.25;;;30.65
17716;BMP280;50159;49.426;11.182;2022-07-05T13:52:12;97888.31;;;30.73
17716;BMP280;50159;49.426;11.182;2022-07-05T13:54:39;97880.19;;;30.45
17716;BMP280;50159;49.426;11.182;2022-07-05T13:57:08;97878.09;;;30.59
17716;BMP280;50159;49.426;11.182;2022-07-05T13:59:35;97868.00;;;30.93
17716;BMP280;50159;49.426;11.182;2022-07-05T14:02:02;97876.72;;;31.27
17716;BMP280;50159;49.426;11.182;2022-07-05T14:04:29;97875.84;;;31.54
17716;BMP280;50159;49.426;11.182;2022-07-05T14:06:57;97884.91;;;31.80
17716;BMP280;50159;49.426;11.182;2022-07-05T14:09:23;97878.72;;;31.96
17716;BMP280;50159;49.426;11.182;2022-07-05T14:11:55;97880.34;;;31.32
17716;BMP280;50159;49.426;11.182;2022-07-05T14:14:21;97866.41;;;30.42
17716;BMP280;50159;49.426;11.182;2022-07-05T14:16:48;97872.66;;;29.97
17716;BMP280;50159;49.426;11.182;2022-07-05T14:19:15;97869.19;;;30.08
17716;BMP280;50159;49.426;11.182;2022-07-05T14:21:42;97859.78;;;30.56
17716;BMP280;50159;49.426;11.182;2022-07-05T14:24:13;97869.22;;;31.13
17716;BMP280;50159;49.426;11.182;2022-07-05T14:26:40;97857.00;;;31.54
17716;BMP280;50159;49.426;11.182;2022-07-05T14:29:08;97870.69;;;32.01
17716;BMP280;50159;49.426;11.182;2022-07-05T14:31:35;97872.63;;;32.05
17716;BMP280;50159;49.426;11.182;2022-07-05T14:34:03;97867.00;;;32.86
17716;BMP280;50159;49.426;11.182;2022-07-05T14:36:30;97870.75;;;33.32